Time;durP1;ratioP1;P1;durP2;ratioP2;P2;SDS_P1;SDS_P2;PMS_P1;PMS_P2;Temp;Humidity;BMP_temperature;BMP_pressure;BME280_temperature;BME280_humidity;BME280_pressure;Samples;Min_cycle;Max_cycle;Signal;HPM_P1;HPM_P2
2023/02/04 00:00:12;;;;;;;2.97;0.80;;;;;;;;;;5012152;28;20318;-45
2023/02/04 00:02:38;;;;;;;1.63;0.90;;;;;;;;;;5013586;28;20172;-45
2023/02/04 00:05:04;;;;;;;1.92;0.90;;;;;;;;;;5011188;28;20183;-45
2023/02/04 00:07:29;;;;;;;3.60;0.90;;;;;;;;;;5011171;28;20196;-46
2023/02/04 00:09:55;;;;;;;1.42;0.80;;;;;;;;;;5010001;28;20255;-46
2023/02/04 00:12:22;;;;;;;0.75;0.70;;;;;;;;;;5007071;28;20267;-46
2023/02/04 00:14:47;;;;;;;3.25;0.93;;;;;;;;;;5001590;28;20176;-45
2023/02/04 00:17:13;;;;;;;1.08;0.70;;;;;;;;;;5006383;28;20661;-45
2023/02/04 00:19:39;;;;;;;2.40;0.63;;;;;;;;;;5012947;28;20298;-46
2023/02/04 00:22:06;;;;;;;1.40;0.70;;;;;;;;;;5007753;28;20184;-46
2023/02/04 00:24:32;;;;;;;1.48;0.80;;;;;;;;;;5011963;28;20190;-46
2023/02/04 00:26:58;;;;;;;1.35;0.80;;;;;;;;;;5005654;28;20192;-46
2023/02/04 00:29:24;;;;;;;1.42;0.90;;;;;;;;;;5015140;28;20235;-46
2023/02/04 00:31:50;;;;;;;0.80;0.70;;;;;;;;;;5005959;28;20173;-46
2023/02/04 00:34:17;;;;;;;1.38;0.70;;;;;;;;;;5010452;28;20199;-46
2023/02/04 00:36:43;;;;;;;1.92;0.90;;;;;;;;;;5007189;28;20194;-46
2023/02/04 00:39:09;;;;;;;1.75;0.90;;;;;;;;;;5008865;28;20624;-46
2023/02/04 00:41:34;;;;;;;2.42;0.90;;;;;;;;;;5014354;28;20291;-46
2023/02/04 00:44:00;;;;;;;3.22;0.90;;;;;;;;;;5012780;28;20177;-47
2023/02/04 00:46:26;;;;;;;1.13;0.80;;;;;;;;;;5012414;28;20344;-46
2023/02/04 00:48:52;;;;;;;1.38;0.70;;;;;;;;;;5013605;28;20188;-46
2023/02/04 00:51:18;;;;;;;1.30;0.88;;;;;;;;;;5007969;28;20189;-46
2023/02/04 00:53:44;;;;;;;1.75;0.70;;;;;;;;;;5006308;28;20231;-45
2023/02/04 00:56:10;;;;;;;2.05;0.85;;;;;;;;;;5008395;28;20200;-46
2023/02/04 00:58:36;;;;;;;0.90;0.57;;;;;;;;;;5007787;28;20195;-46
2023/02/04 01:01:03;;;;;;;1.15;0.70;;;;;;;;;;5007673;28;20212;-45
2023/02/04 01:03:28;;;;;;;1.60;0.80;;;;;;;;;;5006578;28;20181;-45
2023/02/04 01:05:54;;;;;;;2.72;1.08;;;;;;;;;;4999879;28;20267;-45
2023/02/04 01:08:20;;;;;;;1.45;0.77;;;;;;;;;;5011646;28;20232;-45
2023/02/04 01:10:46;;;;;;;1.58;0.90;;;;;;;;;;5007239;28;20180;-45
2023/02/04 01:13:12;;;;;;;1.15;0.70;;;;;;;;;;5005188;28;20216;-45
2023/02/04 01:15:38;;;;;;;1.05;0.52;;;;;;;;;;5014193;28;20208;-45
2023/02/04 01:18:04;;;;;;;1.30;0.70;;;;;;;;;;5016366;28;20227;-45
2023/02/04 01:20:30;;;;;;;1.73;0.90;;;;;;;;;;5012459;28;20275;-45
2023/02/04 01:22:56;;;;;;;1.25;0.73;;;;;;;;;;5016187;28;20255;-45
2023/02/04 01:25:22;;;;;;;2.00;0.68;;;;;;;;;;5010886;28;20247;-45
2023/02/04 01:27:48;;;;;;;2.17;0.90;;;;;;;;;;5014701;28;20235;-45
2023/02/04 01:30:14;;;;;;;1.90;0.80;;;;;;;;;;5011925;28;20215;-45
2023/02/04 01:32:40;;;;;;;1.05;0.60;;;;;;;;;;5016794;28;20206;-45
2023/02/04 01:35:06;;;;;;;2.35;0.77;;;;;;;;;;5015263;28;20279;-45
2023/02/04 01:37:32;;;;;;;0.77;0.52;;;;;;;;;;5009254;28;20526;-45
2023/02/04 01:39:58;;;;;;;1.92;0.80;;;;;;;;;;5011764;28;20209;-45
2023/02/04 01:42:24;;;;;;;1.17;0.60;;;;;;;;;;5013775;28;20263;-45
2023/02/04 01:44:50;;;;;;;1.38;0.60;;;;;;;;;;5007654;28;20191;-45
2023/02/04 01:47:16;;;;;;;0.90;0.65;;;;;;;;;;5013971;28;20618;-45
2023/02/04 01:49:42;;;;;;;0.70;0.65;;;;;;;;;;5015101;28;20201;-45
2023/02/04 01:52:09;;;;;;;1.58;0.60;;;;;;;;;;5014627;28;20260;-45
2023/02/04 01:54:35;;;;;;;1.27;0.70;;;;;;;;;;5015362;28;20188;-45
2023/02/04 01:57:02;;;;;;;0.60;0.52;;;;;;;;;;5015235;28;20191;-45
2023/02/04 01:59:28;;;;;;;1.70;0.52;;;;;;;;;;5013011;28;20743;-45
2023/02/04 02:01:54;;;;;;;1.30;0.60;;;;;;;;;;5013303;28;20180;-45
2023/02/04 02:04:27;;;;;;;1.33;0.77;;;;;;;;;;5008231;28;20375;-45
2023/02/04 02:06:57;;;;;;;1.17;0.68;;;;;;;;;;5005259;28;20754;-45
2023/02/04 02:09:23;;;;;;;0.68;0.50;;;;;;;;;;5004568;28;20177;-45
2023/02/04 02:11:49;;;;;;;1.98;0.80;;;;;;;;;;5007552;28;20185;-45
2023/02/04 02:14:15;;;;;;;0.75;0.63;;;;;;;;;;4997221;28;20196;-45
2023/02/04 02:16:41;;;;;;;0.88;0.60;;;;;;;;;;5014917;28;20440;-45
2023/02/04 02:19:08;;;;;;;0.57;0.50;;;;;;;;;;5015610;28;20204;-45
2023/02/04 02:21:40;;;;;;;1.05;0.52;;;;;;;;;;5008791;28;20227;-45
2023/02/04 02:24:26;;;;;;;0.93;0.60;;;;;;;;;;5016518;28;20255;-45
2023/02/04 02:26:52;;;;;;;0.93;0.50;;;;;;;;;;5007118;28;20223;-44
2023/02/04 02:29:18;;;;;;;1.17;0.50;;;;;;;;;;5012173;28;20215;-44
2023/02/04 02:31:44;;;;;;;1.20;0.55;;;;;;;;;;5006673;28;20173;-44
2023/02/04 02:34:10;;;;;;;0.88;0.55;;;;;;;;;;5011352;28;20211;-45
2023/02/04 02:36:37;;;;;;;0.82;0.30;;;;;;;;;;5014495;28;20187;-45
2023/02/04 02:39:03;;;;;;;0.43;0.43;;;;;;;;;;5010410;28;20311;-45
2023/02/04 02:41:29;;;;;;;0.88;0.60;;;;;;;;;;5006912;28;20210;-45
2023/02/04 02:43:54;;;;;;;0.68;0.40;;;;;;;;;;5013223;28;20263;-45
2023/02/04 02:46:20;;;;;;;0.98;0.40;;;;;;;;;;5013270;28;20466;-45
2023/02/04 02:48:46;;;;;;;1.02;0.40;;;;;;;;;;5015621;28;20581;-45
2023/02/04 02:51:12;;;;;;;1.05;0.77;;;;;;;;;;5009652;28;20193;-45
2023/02/04 02:53:38;;;;;;;0.63;0.45;;;;;;;;;;5010156;28;20192;-45
2023/02/04 02:56:04;;;;;;;2.40;0.60;;;;;;;;;;5012322;28;20215;-44
2023/02/04 02:58:32;;;;;;;0.32;0.30;;;;;;;;;;5014008;28;20224;-45
2023/02/04 03:00:58;;;;;;;0.40;0.38;;;;;;;;;;5011376;28;20208;-44
2023/02/04 03:03:28;;;;;;;0.40;0.32;;;;;;;;;;5010221;28;20200;-45
2023/02/04 03:05:56;;;;;;;0.47;0.47;;;;;;;;;;5010849;28;20183;-45
2023/02/04 03:08:22;;;;;;;0.70;0.43;;;;;;;;;;5012648;28;20199;-45
2023/02/04 03:10:48;;;;;;;0.70;0.52;;;;;;;;;;5005460;28;20211;-45
2023/02/04 03:13:15;;;;;;;0.88;0.50;;;;;;;;;;5008603;28;20226;-45
2023/02/04 03:15:42;;;;;;;0.52;0.45;;;;;;;;;;5013155;28;20214;-45
2023/02/04 03:18:08;;;;;;;0.55;0.40;;;;;;;;;;5012975;28;20184;-45
2023/02/04 03:20:34;;;;;;;0.43;0.40;;;;;;;;;;5009785;28;20204;-45
2023/02/04 03:23:00;;;;;;;0.80;0.60;;;;;;;;;;5010010;28;20614;-45
2023/02/04 03:25:27;;;;;;;0.45;0.32;;;;;;;;;;5007638;28;20181;-45
2023/02/04 03:27:54;;;;;;;1.38;0.40;;;;;;;;;;5012130;28;20657;-45
2023/02/04 03:30:20;;;;;;;0.68;0.50;;;;;;;;;;5011008;28;20188;-45
2023/02/04 03:32:46;;;;;;;0.77;0.40;;;;;;;;;;5008000;28;20188;-45
2023/02/04 03:35:12;;;;;;;0.30;0.30;;;;;;;;;;5008254;28;20229;-45
2023/02/04 03:37:38;;;;;;;1.42;0.43;;;;;;;;;;5013016;28;20278;-45
2023/02/04 03:40:04;;;;;;;0.40;0.32;;;;;;;;;;5013251;28;20207;-45
2023/02/04 03:42:30;;;;;;;0.43;0.40;;;;;;;;;;5009141;28;20523;-45
2023/02/04 03:44:56;;;;;;;0.30;0.30;;;;;;;;;;5008572;28;20278;-45
2023/02/04 03:47:22;;;;;;;0.40;0.30;;;;;;;;;;5011911;28;20195;-45
2023/02/04 03:49:48;;;;;;;1.08;0.50;;;;;;;;;;5010073;28;20212;-45
2023/02/04 03:52:14;;;;;;;0.47;0.47;;;;;;;;;;5010715;28;20185;-45
2023/02/04 03:54:40;;;;;;;0.80;0.40;;;;;;;;;;5006584;28;20185;-45
2023/02/04 03:57:06;;;;;;;0.45;0.40;;;;;;;;;;5012597;28;20184;-45
2023/02/04 03:59:32;;;;;;;0.73;0.40;;;;;;;;;;5007608;28;20250;-45
2023/02/04 04:01:58;;;;;;;0.65;0.40;;;;;;;;;;5013201;28;20177;-45
2023/02/04 04:04:24;;;;;;;1.00;0.32;;;;;;;;;;5013842;28;20267;-46
2023/02/04 04:06:50;;;;;;;0.30;0.30;;;;;;;;;;5003034;28;20196;-45
2023/02/04 04:09:16;;;;;;;0.85;0.40;;;;;;;;;;5006761;28;20620;-45
2023/02/04 04:11:42;;;;;;;0.75;0.40;;;;;;;;;;5008270;28;20216;-45
2023/02/04 04:14:08;;;;;;;0.50;0.30;;;;;;;;;;5005525;28;20236;-45
2023/02/04 04:16:33;;;;;;;0.47;0.47;;;;;;;;;;5012044;28;20212;-45
2023/02/04 04:18:59;;;;;;;0.82;0.52;;;;;;;;;;5013743;28;20180;-45
2023/02/04 04:21:25;;;;;;;0.90;0.75;;;;;;;;;;5004387;28;20212;-45
2023/02/04 04:23:51;;;;;;;0.40;0.40;;;;;;;;;;5007057;28;20177;-46
2023/02/04 04:26:17;;;;;;;0.70;0.43;;;;;;;;;;5002713;28;20267;-46
2023/02/04 04:28:43;;;;;;;0.40;0.40;;;;;;;;;;5003232;28;20235;-46
2023/02/04 04:31:09;;;;;;;0.45;0.45;;;;;;;;;;4995295;28;20277;-46
2023/02/04 04:33:35;;;;;;;0.52;0.40;;;;;;;;;;5011675;28;20189;-45
2023/02/04 04:36:01;;;;;;;0.35;0.30;;;;;;;;;;5013561;28;20189;-45
2023/02/04 04:38:27;;;;;;;0.40;0.32;;;;;;;;;;5008343;28;20181;-46
2023/02/04 04:40:53;;;;;;;0.70;0.30;;;;;;;;;;5012514;28;20220;-46
2023/02/04 04:43:19;;;;;;;0.43;0.40;;;;;;;;;;5017233;28;20185;-46
2023/02/04 04:45:44;;;;;;;0.40;0.40;;;;;;;;;;5016148;28;20191;-46
2023/02/04 04:48:10;;;;;;;0.30;0.30;;;;;;;;;;5015265;28;20184;-46
2023/02/04 04:50:36;;;;;;;0.70;0.40;;;;;;;;;;5014848;28;20195;-46
2023/02/04 04:53:02;;;;;;;0.40;0.40;;;;;;;;;;5014140;28;20334;-46
2023/02/04 04:55:28;;;;;;;0.32;0.30;;;;;;;;;;5013561;28;20188;-46
2023/02/04 04:57:54;;;;;;;0.47;0.40;;;;;;;;;;5017437;28;20192;-46
2023/02/04 05:00:21;;;;;;;0.40;0.30;;;;;;;;;;5009385;28;20208;-46
2023/02/04 05:02:46;;;;;;;0.55;0.45;;;;;;;;;;5013663;28;20220;-46
2023/02/04 05:05:13;;;;;;;0.30;0.30;;;;;;;;;;5012622;28;20215;-46
2023/02/04 05:07:39;;;;;;;0.60;0.35;;;;;;;;;;5013509;28;20255;-46
2023/02/04 05:10:05;;;;;;;0.68;0.35;;;;;;;;;;5015446;28;20284;-46
2023/02/04 05:12:31;;;;;;;0.20;0.20;;;;;;;;;;5015029;28;20192;-46
2023/02/04 05:14:56;;;;;;;0.32;0.30;;;;;;;;;;5009367;28;20193;-46
2023/02/04 05:17:22;;;;;;;0.20;0.20;;;;;;;;;;5016750;28;20209;-46
2023/02/04 05:19:48;;;;;;;0.22;0.22;;;;;;;;;;5013241;28;20231;-46
2023/02/04 05:22:14;;;;;;;0.68;0.45;;;;;;;;;;5015937;28;20181;-46
2023/02/04 05:24:40;;;;;;;0.35;0.35;;;;;;;;;;5009611;28;20234;-46
2023/02/04 05:27:06;;;;;;;0.75;0.57;;;;;;;;;;5014803;28;20228;-46
2023/02/04 05:29:32;;;;;;;0.35;0.28;;;;;;;;;;5015393;28;20271;-46
2023/02/04 05:31:58;;;;;;;0.28;0.28;;;;;;;;;;5015352;28;20181;-46
2023/02/04 05:34:24;;;;;;;0.30;0.30;;;;;;;;;;5014355;28;20188;-46
2023/02/04 05:36:49;;;;;;;1.15;0.50;;;;;;;;;;5013803;28;20187;-46
2023/02/04 05:39:15;;;;;;;0.30;0.30;;;;;;;;;;5014440;28;20231;-46
2023/02/04 05:41:41;;;;;;;0.35;0.35;;;;;;;;;;5010439;28;20205;-46
2023/02/04 05:44:07;;;;;;;0.75;0.40;;;;;;;;;;5011313;28;20454;-46
2023/02/04 05:46:33;;;;;;;0.73;0.30;;;;;;;;;;5010337;28;20189;-46
2023/02/04 05:48:59;;;;;;;0.28;0.28;;;;;;;;;;5013050;28;20200;-46
2023/02/04 05:51:25;;;;;;;0.43;0.43;;;;;;;;;;5012046;28;20256;-46
2023/02/04 05:53:51;;;;;;;0.50;0.40;;;;;;;;;;5011918;28;20552;-45
2023/02/04 05:56:17;;;;;;;0.40;0.35;;;;;;;;;;5009214;28;20189;-45
2023/02/04 05:58:42;;;;;;;0.30;0.30;;;;;;;;;;5014280;28;20343;-45
2023/02/04 06:01:08;;;;;;;0.35;0.28;;;;;;;;;;5013311;28;20250;-46
2023/02/04 06:03:34;;;;;;;0.40;0.40;;;;;;;;;;5009659;28;20206;-46
2023/02/04 06:06:00;;;;;;;0.40;0.30;;;;;;;;;;5012942;28;20214;-46
2023/02/04 06:08:26;;;;;;;0.30;0.30;;;;;;;;;;5012187;28;20191;-45
2023/02/04 06:10:52;;;;;;;0.40;0.40;;;;;;;;;;5029559;28;20186;-45
2023/02/04 06:13:18;;;;;;;0.55;0.30;;;;;;;;;;5015440;28;20220;-46
2023/02/04 06:15:44;;;;;;;0.80;0.60;;;;;;;;;;5001966;28;20255;-46
2023/02/04 06:18:10;;;;;;;0.30;0.30;;;;;;;;;;5006093;28;20216;-45
2023/02/04 06:20:36;;;;;;;0.40;0.40;;;;;;;;;;5013182;28;20618;-45
2023/02/04 06:23:02;;;;;;;0.82;0.28;;;;;;;;;;5014426;28;20180;-45
2023/02/04 06:25:28;;;;;;;0.52;0.30;;;;;;;;;;5012856;28;20284;-45
2023/02/04 06:27:54;;;;;;;1.05;0.30;;;;;;;;;;5016570;28;20275;-46
2023/02/04 06:30:20;;;;;;;0.28;0.20;;;;;;;;;;5010865;28;20189;-46
2023/02/04 06:32:45;;;;;;;0.32;0.25;;;;;;;;;;5014197;28;20185;-45
2023/02/04 06:35:12;;;;;;;0.28;0.28;;;;;;;;;;5009778;28;20188;-46
2023/02/04 06:37:38;;;;;;;0.57;0.30;;;;;;;;;;5013608;28;20182;-46
2023/02/04 06:40:04;;;;;;;0.38;0.38;;;;;;;;;;5008423;28;20204;-46
2023/02/04 06:42:30;;;;;;;0.88;0.47;;;;;;;;;;5011165;28;20219;-45
2023/02/04 06:44:56;;;;;;;0.38;0.38;;;;;;;;;;5014882;28;20228;-45
2023/02/04 06:47:22;;;;;;;0.35;0.20;;;;;;;;;;5014685;28;20188;-45
2023/02/04 06:49:48;;;;;;;0.30;0.30;;;;;;;;;;5009632;28;20192;-45
2023/02/04 06:52:14;;;;;;;0.88;0.40;;;;;;;;;;5016014;28;20191;-45
2023/02/04 06:54:40;;;;;;;0.82;0.43;;;;;;;;;;5010813;28;20185;-45
2023/02/04 06:57:06;;;;;;;0.35;0.20;;;;;;;;;;5006832;28;20216;-46
2023/02/04 06:59:35;;;;;;;0.30;0.30;;;;;;;;;;5011815;28;20620;-46
2023/02/04 07:02:02;;;;;;;0.40;0.40;;;;;;;;;;5014017;28;20191;-45
2023/02/04 07:04:28;;;;;;;0.28;0.28;;;;;;;;;;5011697;28;20184;-45
2023/02/04 07:06:53;;;;;;;0.55;0.13;;;;;;;;;;5003913;28;20190;-45
2023/02/04 07:09:19;;;;;;;0.30;0.30;;;;;;;;;;5011063;28;20185;-45
2023/02/04 07:11:45;;;;;;;0.45;0.45;;;;;;;;;;5006405;28;20615;-45
2023/02/04 07:14:11;;;;;;;0.55;0.30;;;;;;;;;;5013998;28;20272;-46
2023/02/04 07:16:37;;;;;;;0.63;0.40;;;;;;;;;;5010648;28;20208;-45
2023/02/04 07:19:03;;;;;;;0.38;0.38;;;;;;;;;;5008719;28;20446;-46
2023/02/04 07:21:30;;;;;;;0.22;0.20;;;;;;;;;;5010683;28;20212;-46
2023/02/04 07:23:55;;;;;;;0.70;0.45;;;;;;;;;;5014570;28;20177;-46
2023/02/04 07:26:21;;;;;;;0.45;0.40;;;;;;;;;;5004204;28;20196;-46
2023/02/04 07:28:48;;;;;;;0.20;0.20;;;;;;;;;;5011796;28;20188;-45
2023/02/04 07:31:14;;;;;;;0.20;0.20;;;;;;;;;;5012787;28;20635;-45
2023/02/04 07:33:40;;;;;;;0.82;0.22;;;;;;;;;;5013815;28;20650;-45
2023/02/04 07:36:06;;;;;;;0.20;0.20;;;;;;;;;;5013492;28;20185;-46
2023/02/04 07:38:32;;;;;;;0.38;0.30;;;;;;;;;;5007222;28;20590;-45
2023/02/04 07:40:58;;;;;;;1.65;0.40;;;;;;;;;;5001341;28;20235;-46
2023/02/04 07:43:23;;;;;;;1.55;0.40;;;;;;;;;;5008827;28;20208;-46
2023/02/04 07:45:49;;;;;;;0.90;0.30;;;;;;;;;;5011751;28;20458;-46
2023/02/04 07:48:15;;;;;;;0.63;0.50;;;;;;;;;;5005918;28;20193;-48
2023/02/04 07:50:41;;;;;;;0.60;0.50;;;;;;;;;;5008536;28;20181;-48
2023/02/04 07:53:07;;;;;;;2.88;0.45;;;;;;;;;;5004581;28;20177;-48
2023/02/04 07:55:34;;;;;;;2.72;0.50;;;;;;;;;;5003676;28;20238;-48
2023/02/04 07:58:00;;;;;;;0.50;0.50;;;;;;;;;;5009257;28;20189;-48
2023/02/04 08:00:26;;;;;;;2.67;0.52;;;;;;;;;;5005685;28;20201;-48
2023/02/04 08:02:52;;;;;;;0.63;0.50;;;;;;;;;;5006469;28;20181;-47
2023/02/04 08:05:18;;;;;;;1.90;0.40;;;;;;;;;;5006874;28;20177;-49
2023/02/04 08:07:44;;;;;;;1.55;0.50;;;;;;;;;;5005492;28;20185;-48
2023/02/04 08:10:10;;;;;;;0.43;0.43;;;;;;;;;;4996908;28;20384;-48
2023/02/04 08:12:36;;;;;;;0.65;0.35;;;;;;;;;;4996421;28;20311;-48
2023/02/04 08:15:03;;;;;;;0.52;0.40;;;;;;;;;;5006010;28;20196;-47
2023/02/04 08:17:29;;;;;;;1.40;0.50;;;;;;;;;;5006575;28;20207;-48
2023/02/04 08:19:55;;;;;;;74.85;53.10;;;;;;;;;;5010543;28;20623;-48
2023/02/04 08:22:21;;;;;;;54.03;40.67;;;;;;;;;;5010228;28;20225;-48
2023/02/04 08:24:47;;;;;;;55.25;40.45;;;;;;;;;;5011235;28;20268;-48
2023/02/04 08:27:13;;;;;;;53.00;41.20;;;;;;;;;;5018415;28;20254;-48
2023/02/04 08:29:39;;;;;;;63.03;42.80;;;;;;;;;;5010379;28;20547;-48
2023/02/04 08:32:05;;;;;;;47.97;38.55;;;;;;;;;;5010990;28;20250;-48
2023/02/04 08:34:31;;;;;;;52.53;39.85;;;;;;;;;;5016454;28;20250;-48
2023/02/04 08:36:57;;;;;;;53.58;40.67;;;;;;;;;;5015301;28;20188;-48
2023/02/04 08:39:23;;;;;;;46.83;36.88;;;;;;;;;;5018926;28;20524;-48
2023/02/04 08:41:50;;;;;;;47.67;36.30;;;;;;;;;;5016412;28;20699;-48
2023/02/04 08:44:16;;;;;;;45.10;34.83;;;;;;;;;;5018756;28;20200;-47
2023/02/04 08:46:42;;;;;;;45.05;34.28;;;;;;;;;;5015934;28;20211;-48
2023/02/04 08:49:07;;;;;;;44.50;33.63;;;;;;;;;;5018104;28;20176;-47
2023/02/04 08:51:33;;;;;;;40.90;31.45;;;;;;;;;;5017272;28;20555;-47
2023/02/04 08:53:59;;;;;;;37.13;30.70;;;;;;;;;;5017939;28;20477;-47
2023/02/04 08:56:25;;;;;;;45.53;32.22;;;;;;;;;;5008408;28;20184;-47
2023/02/04 08:58:51;;;;;;;42.80;31.58;;;;;;;;;;5016512;28;20256;-47
2023/02/04 09:01:17;;;;;;;37.13;28.92;;;;;;;;;;5012995;28;20200;-47
2023/02/04 09:03:43;;;;;;;38.17;29.73;;;;;;;;;;5015250;28;20199;-47
2023/02/04 09:06:10;;;;;;;35.30;28.27;;;;;;;;;;5006229;28;20265;-47
2023/02/04 09:08:36;;;;;;;33.20;27.50;;;;;;;;;;5008865;28;20181;-47
2023/02/04 09:11:03;;;;;;;31.08;24.80;;;;;;;;;;5012629;28;20181;-52
2023/02/04 09:13:29;;;;;;;33.05;25.63;;;;;;;;;;5011662;28;20189;-47
2023/02/04 09:15:55;;;;;;;36.05;24.42;;;;;;;;;;5013728;28;20599;-47
2023/02/04 09:18:21;;;;;;;31.73;24.50;;;;;;;;;;5017173;28;20199;-47
2023/02/04 09:20:48;;;;;;;29.70;24.38;;;;;;;;;;5015982;28;20212;-47
2023/02/04 09:23:14;;;;;;;30.85;24.92;;;;;;;;;;5015765;28;20199;-48
2023/02/04 09:25:41;;;;;;;32.58;24.25;;;;;;;;;;5011591;28;20192;-48
2023/02/04 09:28:11;;;;;;;30.17;23.60;;;;;;;;;;5009532;28;20217;-47
2023/02/04 09:30:38;;;;;;;38.70;27.75;;;;;;;;;;5015891;28;20192;-47
2023/02/04 09:33:03;;;;;;;36.47;30.90;;;;;;;;;;5013060;28;20596;-47
2023/02/04 09:35:29;;;;;;;37.08;28.98;;;;;;;;;;5013847;28;20220;-47
2023/02/04 09:37:55;;;;;;;29.92;24.27;;;;;;;;;;5011253;28;20260;-47
2023/02/04 09:40:21;;;;;;;24.30;20.48;;;;;;;;;;5016016;28;20657;-47
2023/02/04 09:42:48;;;;;;;22.10;18.90;;;;;;;;;;5007205;28;20189;-47
2023/02/04 09:45:33;;;;;;;26.73;19.27;;;;;;;;;;5014033;28;20180;-47
2023/02/04 09:48:01;;;;;;;22.85;17.95;;;;;;;;;;5013872;28;20191;-47
2023/02/04 09:50:28;;;;;;;29.23;16.45;;;;;;;;;;5011877;28;20212;-48
2023/02/04 09:52:56;;;;;;;22.42;16.95;;;;;;;;;;5005397;28;20188;-48
2023/02/04 09:55:26;;;;;;;23.23;17.00;;;;;;;;;;5009332;28;20188;-47
2023/02/04 09:57:52;;;;;;;23.13;16.92;;;;;;;;;;5016003;28;20572;-48
2023/02/04 10:00:19;;;;;;;21.83;17.10;;;;;;;;;;5015403;28;20295;-47
2023/02/04 10:02:45;;;;;;;23.42;18.38;;;;;;;;;;5011496;28;20195;-48
2023/02/04 10:05:16;;;;;;;22.77;17.88;;;;;;;;;;5012285;28;20188;-47
2023/02/04 10:07:42;;;;;;;23.95;17.15;;;;;;;;;;5010701;28;20327;-48
2023/02/04 10:10:18;;;;;;;21.50;15.80;;;;;;;;;;5006612;28;20576;-47
2023/02/04 10:12:44;;;;;;;20.58;14.73;;;;;;;;;;5007196;28;20235;-47
2023/02/04 10:15:18;;;;;;;19.23;14.48;;;;;;;;;;5003676;28;20267;-47
2023/02/04 10:17:45;;;;;;;17.42;14.00;;;;;;;;;;5007510;28;20189;-48
2023/02/04 10:20:12;;;;;;;20.77;14.45;;;;;;;;;;5016732;28;20526;-48
2023/02/04 10:22:38;;;;;;;18.95;14.13;;;;;;;;;;5015718;28;20184;-48
2023/02/04 10:25:11;;;;;;;19.42;14.05;;;;;;;;;;5013342;28;20536;-48
2023/02/04 10:27:46;;;;;;;19.90;14.10;;;;;;;;;;5013427;28;20754;-47
2023/02/04 10:30:18;;;;;;;19.95;13.30;;;;;;;;;;5014268;28;20551;-47
2023/02/04 10:32:44;;;;;;;16.48;12.70;;;;;;;;;;5014042;28;20229;-48
2023/02/04 10:35:14;;;;;;;13.93;11.18;;;;;;;;;;5013292;28;20188;-48
2023/02/04 10:37:40;;;;;;;16.08;12.32;;;;;;;;;;5012131;28;20442;-48
2023/02/04 10:40:06;;;;;;;14.98;11.98;;;;;;;;;;5015713;28;20204;-48
2023/02/04 10:42:32;;;;;;;14.52;11.00;;;;;;;;;;5014209;28;20202;-48
2023/02/04 10:44:58;;;;;;;14.20;10.32;;;;;;;;;;5008921;28;20188;-48
2023/02/04 10:47:26;;;;;;;12.38;9.70;;;;;;;;;;5010644;28;20187;-48
2023/02/04 10:50:04;;;;;;;16.42;11.02;;;;;;;;;;5013466;28;20191;-47
2023/02/04 10:52:34;;;;;;;13.07;9.95;;;;;;;;;;5011986;28;20176;-47
2023/02/04 10:55:02;;;;;;;14.73;9.88;;;;;;;;;;5015130;28;20208;-47
2023/02/04 10:57:28;;;;;;;15.23;10.32;;;;;;;;;;5011485;28;20275;-48
2023/02/04 10:59:56;;;;;;;12.90;9.30;;;;;;;;;;5010903;28;20180;-47
2023/02/04 11:02:25;;;;;;;15.77;9.90;;;;;;;;;;5007310;28;20211;-47
2023/02/04 11:04:51;;;;;;;15.95;9.95;;;;;;;;;;5011870;28;20219;-47
2023/02/04 11:07:17;;;;;;;14.18;9.88;;;;;;;;;;5004829;28;20200;-47
2023/02/04 11:09:43;;;;;;;13.90;9.77;;;;;;;;;;5014389;28;20188;-47
2023/02/04 11:12:22;;;;;;;14.55;9.25;;;;;;;;;;5014816;28;20181;-47
2023/02/04 11:14:54;;;;;;;13.35;8.85;;;;;;;;;;5009743;28;20188;-47
2023/02/04 11:17:20;;;;;;;15.02;9.00;;;;;;;;;;5007149;28;20216;-47
2023/02/04 11:19:46;;;;;;;13.85;8.95;;;;;;;;;;5007709;28;20594;-48
2023/02/04 11:22:21;;;;;;;13.57;9.45;;;;;;;;;;5007926;28;20184;-47
2023/02/04 11:24:47;;;;;;;13.48;8.73;;;;;;;;;;5009893;28;20180;-47
2023/02/04 11:27:20;;;;;;;11.50;8.30;;;;;;;;;;5006277;28;20200;-47
2023/02/04 11:29:46;;;;;;;12.95;7.72;;;;;;;;;;5009687;28;20208;-47
2023/02/04 11:32:29;;;;;;;13.20;8.82;;;;;;;;;;5012776;28;20215;-47
2023/02/04 11:35:05;;;;;;;11.13;7.32;;;;;;;;;;5004106;28;20598;-47
2023/02/04 11:37:38;;;;;;;16.17;8.45;;;;;;;;;;5004863;28;20198;-47
2023/02/04 11:40:22;;;;;;;12.43;7.63;;;;;;;;;;5014750;28;20208;-47
2023/02/04 11:42:48;;;;;;;11.52;7.18;;;;;;;;;;5006687;28;20177;-47
2023/02/04 11:45:14;;;;;;;8.50;6.97;;;;;;;;;;5013846;28;20266;-47
2023/02/04 11:47:40;;;;;;;10.65;7.40;;;;;;;;;;5009376;28;21752;-47
2023/02/04 11:50:25;;;;;;;10.40;7.88;;;;;;;;;;5013097;28;20196;-47
2023/02/04 11:52:51;;;;;;;10.73;7.15;;;;;;;;;;5011621;28;20188;-47
2023/02/04 11:55:18;;;;;;;9.88;7.03;;;;;;;;;;5004455;28;20267;-47
2023/02/04 11:57:44;;;;;;;9.32;6.43;;;;;;;;;;5004476;28;20185;-47
2023/02/04 12:00:14;;;;;;;8.18;6.60;;;;;;;;;;5013651;28;20223;-47
2023/02/04 12:02:51;;;;;;;8.43;6.38;;;;;;;;;;5007360;28;20437;-48
2023/02/04 12:05:18;;;;;;;7.95;6.15;;;;;;;;;;5012253;28;20207;-48
2023/02/04 12:07:45;;;;;;;6.93;5.70;;;;;;;;;;5009813;28;20187;-48
2023/02/04 12:10:12;;;;;;;9.35;6.22;;;;;;;;;;5004585;28;20294;-48
2023/02/04 12:12:48;;;;;;;7.60;6.18;;;;;;;;;;5007094;28;20203;-48
2023/02/04 12:15:15;;;;;;;8.98;6.20;;;;;;;;;;5013918;28;20480;-48
2023/02/04 12:17:44;;;;;;;7.25;5.53;;;;;;;;;;5014438;28;20235;-48
2023/02/04 12:20:11;;;;;;;7.35;5.88;;;;;;;;;;5011396;28;20219;-48
2023/02/04 12:22:37;;;;;;;8.15;5.78;;;;;;;;;;5013858;28;20439;-48
2023/02/04 12:25:03;;;;;;;7.00;5.38;;;;;;;;;;5013706;28;20176;-47
2023/02/04 12:27:29;;;;;;;8.25;6.05;;;;;;;;;;4998536;28;20196;-47
2023/02/04 12:29:55;;;;;;;6.47;5.43;;;;;;;;;;5013541;28;20184;-47
2023/02/04 12:32:20;;;;;;;7.07;5.80;;;;;;;;;;5013486;28;20172;-47
2023/02/04 12:34:46;;;;;;;7.55;6.18;;;;;;;;;;5009365;28;20212;-47
2023/02/04 12:37:12;;;;;;;6.78;5.47;;;;;;;;;;5027012;28;20188;-47
2023/02/04 12:39:38;;;;;;;6.65;5.45;;;;;;;;;;5012863;28;20185;-48
2023/02/04 12:42:04;;;;;;;6.50;5.18;;;;;;;;;;5012740;28;20236;-48
2023/02/04 12:44:30;;;;;;;5.97;5.18;;;;;;;;;;5006272;28;20217;-47
2023/02/04 12:46:56;;;;;;;7.40;5.72;;;;;;;;;;5010583;28;20185;-47
2023/02/04 12:49:23;;;;;;;6.20;4.95;;;;;;;;;;5007832;28;20185;-47
2023/02/04 12:51:49;;;;;;;5.95;5.07;;;;;;;;;;5009353;28;20200;-48
2023/02/04 12:54:15;;;;;;;5.30;4.47;;;;;;;;;;5005069;28;20509;-47
2023/02/04 12:56:41;;;;;;;6.40;5.00;;;;;;;;;;5013577;28;20612;-47
2023/02/04 12:59:07;;;;;;;5.90;4.63;;;;;;;;;;5002426;28;20188;-48
2023/02/04 13:01:33;;;;;;;6.10;4.82;;;;;;;;;;5010140;28;20255;-48
2023/02/04 13:03:59;;;;;;;5.88;4.88;;;;;;;;;;5010318;28;20570;-47
2023/02/04 13:06:25;;;;;;;5.90;4.63;;;;;;;;;;5010612;28;20187;-47
2023/02/04 13:08:51;;;;;;;5.93;4.70;;;;;;;;;;5016353;28;20798;-47
2023/02/04 13:11:17;;;;;;;5.25;4.47;;;;;;;;;;5009076;28;20189;-48
2023/02/04 13:13:43;;;;;;;6.60;4.50;;;;;;;;;;5014962;28;20186;-48
2023/02/04 13:16:09;;;;;;;4.88;4.38;;;;;;;;;;5006365;28;20349;-48
2023/02/04 13:18:34;;;;;;;6.25;4.40;;;;;;;;;;5013143;28;20196;-48
2023/02/04 13:21:00;;;;;;;5.70;4.15;;;;;;;;;;5015625;28;20212;-48
2023/02/04 13:23:26;;;;;;;4.93;4.15;;;;;;;;;;5009288;28;20256;-47
2023/02/04 13:25:52;;;;;;;5.60;4.57;;;;;;;;;;5010218;28;20188;-47
2023/02/04 13:28:18;;;;;;;5.95;4.45;;;;;;;;;;5012856;28;20239;-47
2023/02/04 13:30:44;;;;;;;6.13;4.07;;;;;;;;;;5015075;28;20549;-47
2023/02/04 13:33:10;;;;;;;5.82;4.20;;;;;;;;;;5006501;28;20200;-47
2023/02/04 13:35:36;;;;;;;5.15;3.90;;;;;;;;;;5009719;28;20561;-47
2023/02/04 13:38:02;;;;;;;6.05;4.15;;;;;;;;;;5011416;28;20460;-47
2023/02/04 13:40:28;;;;;;;6.68;4.60;;;;;;;;;;5010619;28;20209;-48
2023/02/04 13:42:54;;;;;;;8.93;4.82;;;;;;;;;;5010177;28;20191;-47
2023/02/04 13:45:20;;;;;;;7.47;4.53;;;;;;;;;;5006575;28;20180;-47
2023/02/04 13:47:47;;;;;;;7.22;5.13;;;;;;;;;;5014374;28;20177;-47
2023/02/04 13:50:13;;;;;;;8.18;4.65;;;;;;;;;;5011466;28;20187;-48
2023/02/04 13:52:39;;;;;;;8.60;4.95;;;;;;;;;;5015593;28;20180;-47
2023/02/04 13:55:05;;;;;;;10.18;4.97;;;;;;;;;;5013025;28;20247;-47
2023/02/04 13:57:32;;;;;;;7.30;4.30;;;;;;;;;;5013552;28;20263;-47
2023/02/04 13:59:58;;;;;;;6.70;4.53;;;;;;;;;;5016594;28;20181;-47
2023/02/04 14:02:24;;;;;;;8.75;4.35;;;;;;;;;;5010762;28;20182;-47
2023/02/04 14:04:50;;;;;;;9.73;5.07;;;;;;;;;;5010081;28;20203;-47
2023/02/04 14:07:16;;;;;;;7.13;4.63;;;;;;;;;;5001795;28;20216;-47
2023/02/04 14:09:41;;;;;;;7.32;4.35;;;;;;;;;;5001682;28;20249;-47
2023/02/04 14:12:07;;;;;;;6.40;4.20;;;;;;;;;;4996965;28;20189;-48
2023/02/04 14:14:33;;;;;;;6.05;4.05;;;;;;;;;;5004921;28;20189;-48
2023/02/04 14:16:59;;;;;;;9.02;4.38;;;;;;;;;;5016191;28;20183;-47
2023/02/04 14:19:26;;;;;;;7.20;3.70;;;;;;;;;;5009741;28;20598;-47
2023/02/04 14:21:52;;;;;;;5.65;4.10;;;;;;;;;;5014997;28;20638;-47
2023/02/04 14:24:19;;;;;;;7.88;4.32;;;;;;;;;;5016517;28;20242;-48
2023/02/04 14:26:45;;;;;;;5.13;3.53;;;;;;;;;;5005827;28;20209;-48
2023/02/04 14:29:11;;;;;;;5.57;4.00;;;;;;;;;;5014828;28;20185;-48
2023/02/04 14:31:37;;;;;;;8.10;3.67;;;;;;;;;;5016327;28;20227;-48
2023/02/04 14:34:03;;;;;;;5.30;3.75;;;;;;;;;;5008419;28;20243;-48